sensor_id;sensor_type;location;lat;lon;timestamp;P1;durP1;ratioP1;P2;durP2;ratioP2
52508;SDS011;38420;53.150;6.370;2023-04-25T00:00:45;18.75;;;4.50;;
52508;SDS011;38420;53.150;6.370;2023-04-25T00:03:11;26.38;;;4.88;;
52508;SDS011;38420;53.150;6.370;2023-04-25T00:05:37;24.85;;;5.13;;
52508;SDS011;38420;53.150;6.370;2023-04-25T00:08:03;25.13;;;5.25;;
52508;SDS011;38420;53.150;6.370;2023-04-25T00:10:29;19.33;;;4.93;;
52508;SDS011;38420;53.150;6.370;2023-04-25T00:12:54;24.85;;;4.85;;
52508;SDS011;38420;53.150;6.370;2023-04-25T00:15:20;18.40;;;4.63;;
52508;SDS011;38420;53.150;6.370;2023-04-25T00:17:46;20.40;;;5.55;;
52508;SDS011;38420;53.150;6.370;2023-04-25T00:20:12;24.15;;;4.65;;
52508;SDS011;38420;53.150;6.370;2023-04-25T00:22:38;21.70;;;4.45;;
52508;SDS011;38420;53.150;6.370;2023-04-25T00:25:04;22.98;;;5.47;;
52508;SDS011;38420;53.150;6.370;2023-04-25T00:27:31;16.17;;;4.07;;
52508;SDS011;38420;53.150;6.370;2023-04-25T00:29:57;23.65;;;5.55;;
52508;SDS011;38420;53.150;6.370;2023-04-25T00:32:22;23.40;;;4.35;;
52508;SDS011;38420;53.150;6.370;2023-04-25T00:34:48;19.73;;;3.58;;
52508;SDS011;38420;53.150;6.370;2023-04-25T00:37:13;17.38;;;4.30;;
52508;SDS011;38420;53.150;6.370;2023-04-25T00:39:39;26.98;;;4.28;;
52508;SDS011;38420;53.150;6.370;2023-04-25T00:42:05;20.10;;;3.72;;
52508;SDS011;38420;53.150;6.370;2023-04-25T00:44:31;19.73;;;3.50;;
52508;SDS011;38420;53.150;6.370;2023-04-25T00:47:00;21.42;;;3.70;;
52508;SDS011;38420;53.150;6.370;2023-04-25T00:49:27;15.23;;;3.17;;
52508;SDS011;38420;53.150;6.370;2023-04-25T00:51:53;12.85;;;3.50;;
52508;SDS011;38420;53.150;6.370;2023-04-25T00:54:18;20.83;;;3.63;;
52508;SDS011;38420;53.150;6.370;2023-04-25T00:56:44;16.48;;;3.30;;
52508;SDS011;38420;53.150;6.370;2023-04-25T00:59:10;16.30;;;3.13;;
52508;SDS011;38420;53.150;6.370;2023-04-25T01:01:36;17.38;;;3.20;;
52508;SDS011;38420;53.150;6.370;2023-04-25T01:04:04;13.95;;;3.10;;
52508;SDS011;38420;53.150;6.370;2023-04-25T01:06:29;18.83;;;3.30;;
52508;SDS011;38420;53.150;6.370;2023-04-25T01:08:56;15.02;;;3.28;;
52508;SDS011;38420;53.150;6.370;2023-04-25T01:11:23;14.88;;;3.85;;
52508;SDS011;38420;53.150;6.370;2023-04-25T01:13:49;19.40;;;3.05;;
52508;SDS011;38420;53.150;6.370;2023-04-25T01:16:15;15.32;;;3.50;;
52508;SDS011;38420;53.150;6.370;2023-04-25T01:18:40;22.42;;;3.80;;
52508;SDS011;38420;53.150;6.370;2023-04-25T01:21:10;14.55;;;3.08;;
52508;SDS011;38420;53.150;6.370;2023-04-25T01:23:38;10.57;;;2.93;;
52508;SDS011;38420;53.150;6.370;2023-04-25T01:26:05;17.90;;;3.38;;
52508;SDS011;38420;53.150;6.370;2023-04-25T01:28:32;24.27;;;3.47;;
52508;SDS011;38420;53.150;6.370;2023-04-25T01:30:59;22.30;;;2.97;;
52508;SDS011;38420;53.150;6.370;2023-04-25T01:33:24;20.38;;;3.30;;
52508;SDS011;38420;53.150;6.370;2023-04-25T01:35:50;14.32;;;2.90;;
52508;SDS011;38420;53.150;6.370;2023-04-25T01:38:16;18.50;;;3.30;;
52508;SDS011;38420;53.150;6.370;2023-04-25T01:40:42;12.88;;;2.97;;
52508;SDS011;38420;53.150;6.370;2023-04-25T01:43:10;13.05;;;3.03;;
52508;SDS011;38420;53.150;6.370;2023-04-25T01:45:37;15.02;;;3.28;;
52508;SDS011;38420;53.150;6.370;2023-04-25T01:48:06;16.73;;;3.05;;
52508;SDS011;38420;53.150;6.370;2023-04-25T01:50:32;10.80;;;2.38;;
52508;SDS011;38420;53.150;6.370;2023-04-25T01:52:58;18.85;;;3.00;;
52508;SDS011;38420;53.150;6.370;2023-04-25T01:55:24;18.60;;;3.20;;
52508;SDS011;38420;53.150;6.370;2023-04-25T01:57:49;16.13;;;3.10;;
52508;SDS011;38420;53.150;6.370;2023-04-25T02:00:15;15.13;;;3.15;;
52508;SDS011;38420;53.150;6.370;2023-04-25T02:02:41;18.35;;;3.58;;
52508;SDS011;38420;53.150;6.370;2023-04-25T02:05:06;14.38;;;3.50;;
52508;SDS011;38420;53.150;6.370;2023-04-25T02:07:32;15.18;;;3.40;;
52508;SDS011;38420;53.150;6.370;2023-04-25T02:09:58;18.50;;;3.20;;
52508;SDS011;38420;53.150;6.370;2023-04-25T02:12:23;25.63;;;3.63;;
52508;SDS011;38420;53.150;6.370;2023-04-25T02:14:51;16.83;;;3.22;;
52508;SDS011;38420;53.150;6.370;2023-04-25T02:17:16;15.48;;;3.25;;
52508;SDS011;38420;53.150;6.370;2023-04-25T02:19:42;11.73;;;2.33;;
52508;SDS011;38420;53.150;6.370;2023-04-25T02:22:08;18.38;;;3.30;;
52508;SDS011;38420;53.150;6.370;2023-04-25T02:24:35;12.63;;;3.00;;
52508;SDS011;38420;53.150;6.370;2023-04-25T02:27:01;13.93;;;3.50;;
52508;SDS011;38420;53.150;6.370;2023-04-25T02:29:27;18.55;;;2.92;;
52508;SDS011;38420;53.150;6.370;2023-04-25T02:31:53;15.85;;;3.25;;
52508;SDS011;38420;53.150;6.370;2023-04-25T02:34:19;19.38;;;3.30;;
52508;SDS011;38420;53.150;6.370;2023-04-25T02:36:45;17.92;;;3.10;;
52508;SDS011;38420;53.150;6.370;2023-04-25T02:39:11;19.70;;;2.80;;
52508;SDS011;38420;53.150;6.370;2023-04-25T02:41:36;17.50;;;2.95;;
52508;SDS011;38420;53.150;6.370;2023-04-25T02:44:02;12.13;;;3.78;;
52508;SDS011;38420;53.150;6.370;2023-04-25T02:46:28;15.98;;;2.90;;
52508;SDS011;38420;53.150;6.370;2023-04-25T02:48:53;15.23;;;2.80;;
52508;SDS011;38420;53.150;6.370;2023-04-25T02:51:19;14.07;;;2.60;;
52508;SDS011;38420;53.150;6.370;2023-04-25T02:53:44;12.20;;;2.55;;
52508;SDS011;38420;53.150;6.370;2023-04-25T02:56:10;15.25;;;3.08;;
52508;SDS011;38420;53.150;6.370;2023-04-25T02:58:35;16.70;;;3.15;;
52508;SDS011;38420;53.150;6.370;2023-04-25T03:01:01;16.35;;;3.88;;
52508;SDS011;38420;53.150;6.370;2023-04-25T03:03:26;16.63;;;3.20;;
52508;SDS011;38420;53.150;6.370;2023-04-25T03:05:52;25.02;;;3.53;;
52508;SDS011;38420;53.150;6.370;2023-04-25T03:08:18;14.90;;;2.50;;
52508;SDS011;38420;53.150;6.370;2023-04-25T03:10:44;16.55;;;2.78;;
52508;SDS011;38420;53.150;6.370;2023-04-25T03:13:10;12.57;;;2.60;;
52508;SDS011;38420;53.150;6.370;2023-04-25T03:15:36;11.55;;;2.42;;
52508;SDS011;38420;53.150;6.370;2023-04-25T03:18:02;15.00;;;1.85;;
52508;SDS011;38420;53.150;6.370;2023-04-25T03:20:28;14.00;;;2.50;;
52508;SDS011;38420;53.150;6.370;2023-04-25T03:22:54;12.07;;;2.42;;
52508;SDS011;38420;53.150;6.370;2023-04-25T03:25:20;13.13;;;4.10;;
52508;SDS011;38420;53.150;6.370;2023-04-25T03:27:45;13.60;;;2.30;;
52508;SDS011;38420;53.150;6.370;2023-04-25T03:30:11;13.07;;;2.20;;
52508;SDS011;38420;53.150;6.370;2023-04-25T03:32:37;12.35;;;2.58;;
52508;SDS011;38420;53.150;6.370;2023-04-25T03:35:02;10.50;;;2.03;;
52508;SDS011;38420;53.150;6.370;2023-04-25T03:37:29;11.40;;;3.05;;
52508;SDS011;38420;53.150;6.370;2023-04-25T03:39:54;15.10;;;2.30;;
52508;SDS011;38420;53.150;6.370;2023-04-25T03:42:20;11.43;;;2.08;;
52508;SDS011;38420;53.150;6.370;2023-04-25T03:44:47;13.10;;;3.00;;
52508;SDS011;38420;53.150;6.370;2023-04-25T03:47:14;14.07;;;2.30;;
52508;SDS011;38420;53.150;6.370;2023-04-25T03:49:39;9.82;;;2.35;;
52508;SDS011;38420;53.150;6.370;2023-04-25T03:52:06;14.48;;;2.90;;
52508;SDS011;38420;53.150;6.370;2023-04-25T03:54:32;12.27;;;2.20;;
52508;SDS011;38420;53.150;6.370;2023-04-25T03:56:57;13.82;;;2.95;;
52508;SDS011;38420;53.150;6.370;2023-04-25T03:59:23;13.88;;;2.15;;
52508;SDS011;38420;53.150;6.370;2023-04-25T04:01:49;9.73;;;1.75;;
52508;SDS011;38420;53.150;6.370;2023-04-25T04:04:15;16.63;;;2.78;;
52508;SDS011;38420;53.150;6.370;2023-04-25T04:06:41;10.88;;;2.30;;
52508;SDS011;38420;53.150;6.370;2023-04-25T04:09:07;12.23;;;2.38;;
52508;SDS011;38420;53.150;6.370;2023-04-25T04:11:36;12.85;;;2.50;;
52508;SDS011;38420;53.150;6.370;2023-04-25T04:14:03;14.07;;;2.95;;
52508;SDS011;38420;53.150;6.370;2023-04-25T04:16:32;10.93;;;2.22;;
52508;SDS011;38420;53.150;6.370;2023-04-25T04:18:57;10.32;;;2.08;;
52508;SDS011;38420;53.150;6.370;2023-04-25T04:21:23;16.30;;;2.58;;
52508;SDS011;38420;53.150;6.370;2023-04-25T04:23:49;16.45;;;3.10;;
52508;SDS011;38420;53.150;6.370;2023-04-25T04:26:14;18.65;;;3.85;;
52508;SDS011;38420;53.150;6.370;2023-04-25T04:28:41;15.05;;;2.30;;
52508;SDS011;38420;53.150;6.370;2023-04-25T04:31:09;12.13;;;2.90;;
52508;SDS011;38420;53.150;6.370;2023-04-25T04:33:35;11.95;;;2.30;;
52508;SDS011;38420;53.150;6.370;2023-04-25T04:36:01;17.15;;;2.45;;
52508;SDS011;38420;53.150;6.370;2023-04-25T04:38:28;14.43;;;4.03;;
52508;SDS011;38420;53.150;6.370;2023-04-25T04:40:54;14.38;;;2.70;;
52508;SDS011;38420;53.150;6.370;2023-04-25T04:43:20;13.85;;;2.42;;
52508;SDS011;38420;53.150;6.370;2023-04-25T04:45:47;14.20;;;2.50;;
52508;SDS011;38420;53.150;6.370;2023-04-25T04:48:14;10.77;;;2.42;;
52508;SDS011;38420;53.150;6.370;2023-04-25T04:50:39;15.52;;;3.03;;
52508;SDS011;38420;53.150;6.370;2023-04-25T04:53:06;20.48;;;4.80;;
52508;SDS011;38420;53.150;6.370;2023-04-25T04:55:32;14.27;;;3.53;;
52508;SDS011;38420;53.150;6.370;2023-04-25T04:57:57;12.98;;;2.33;;
52508;SDS011;38420;53.150;6.370;2023-04-25T05:00:23;12.80;;;3.78;;
52508;SDS011;38420;53.150;6.370;2023-04-25T05:02:48;15.75;;;2.90;;
52508;SDS011;38420;53.150;6.370;2023-04-25T05:05:14;12.27;;;2.13;;
52508;SDS011;38420;53.150;6.370;2023-04-25T05:07:40;17.48;;;2.70;;
52508;SDS011;38420;53.150;6.370;2023-04-25T05:10:05;14.27;;;2.83;;
52508;SDS011;38420;53.150;6.370;2023-04-25T05:12:31;11.68;;;2.30;;
52508;SDS011;38420;53.150;6.370;2023-04-25T05:14:57;19.25;;;3.22;;
52508;SDS011;38420;53.150;6.370;2023-04-25T05:17:23;17.10;;;2.50;;
52508;SDS011;38420;53.150;6.370;2023-04-25T05:19:48;13.90;;;2.30;;
52508;SDS011;38420;53.150;6.370;2023-04-25T05:22:14;10.88;;;2.10;;
52508;SDS011;38420;53.150;6.370;2023-04-25T05:24:40;12.18;;;2.45;;
52508;SDS011;38420;53.150;6.370;2023-04-25T05:27:05;22.25;;;9.27;;
52508;SDS011;38420;53.150;6.370;2023-04-25T05:29:31;12.30;;;2.92;;
52508;SDS011;38420;53.150;6.370;2023-04-25T05:31:56;11.45;;;2.15;;
52508;SDS011;38420;53.150;6.370;2023-04-25T05:34:22;14.00;;;2.38;;
52508;SDS011;38420;53.150;6.370;2023-04-25T05:36:48;10.70;;;2.58;;
52508;SDS011;38420;53.150;6.370;2023-04-25T05:39:15;14.10;;;2.78;;
52508;SDS011;38420;53.150;6.370;2023-04-25T05:41:42;12.98;;;2.25;;
52508;SDS011;38420;53.150;6.370;2023-04-25T05:44:08;15.23;;;2.78;;
52508;SDS011;38420;53.150;6.370;2023-04-25T05:46:34;13.50;;;2.80;;
52508;SDS011;38420;53.150;6.370;2023-04-25T05:48:59;15.38;;;2.50;;
52508;SDS011;38420;53.150;6.370;2023-04-25T05:51:25;10.38;;;2.17;;
52508;SDS011;38420;53.150;6.370;2023-04-25T05:53:51;10.93;;;2.28;;
52508;SDS011;38420;53.150;6.370;2023-04-25T05:56:16;18.17;;;2.83;;
52508;SDS011;38420;53.150;6.370;2023-04-25T05:58:42;13.23;;;2.63;;
52508;SDS011;38420;53.150;6.370;2023-04-25T06:01:08;16.33;;;2.83;;
52508;SDS011;38420;53.150;6.370;2023-04-25T06:03:34;14.98;;;2.47;;
52508;SDS011;38420;53.150;6.370;2023-04-25T06:06:00;13.20;;;2.20;;
52508;SDS011;38420;53.150;6.370;2023-04-25T06:08:25;8.52;;;1.80;;
52508;SDS011;38420;53.150;6.370;2023-04-25T06:10:51;11.93;;;2.13;;
52508;SDS011;38420;53.150;6.370;2023-04-25T06:13:16;16.77;;;2.40;;
52508;SDS011;38420;53.150;6.370;2023-04-25T06:15:42;9.38;;;1.58;;
52508;SDS011;38420;53.150;6.370;2023-04-25T06:18:08;12.30;;;2.72;;
52508;SDS011;38420;53.150;6.370;2023-04-25T06:20:33;8.20;;;2.08;;
52508;SDS011;38420;53.150;6.370;2023-04-25T06:22:59;10.77;;;1.98;;
52508;SDS011;38420;53.150;6.370;2023-04-25T06:25:25;12.52;;;2.05;;
52508;SDS011;38420;53.150;6.370;2023-04-25T06:27:50;10.38;;;2.00;;
52508;SDS011;38420;53.150;6.370;2023-04-25T06:30:16;8.45;;;1.80;;
52508;SDS011;38420;53.150;6.370;2023-04-25T06:32:47;7.88;;;1.73;;
52508;SDS011;38420;53.150;6.370;2023-04-25T06:35:12;9.50;;;1.70;;
52508;SDS011;38420;53.150;6.370;2023-04-25T06:37:38;8.23;;;1.38;;
52508;SDS011;38420;53.150;6.370;2023-04-25T06:40:04;12.07;;;1.73;;
52508;SDS011;38420;53.150;6.370;2023-04-25T06:42:30;8.23;;;1.55;;
52508;SDS011;38420;53.150;6.370;2023-04-25T06:44:55;10.05;;;1.40;;
52508;SDS011;38420;53.150;6.370;2023-04-25T06:47:21;8.68;;;1.05;;
52508;SDS011;38420;53.150;6.370;2023-04-25T06:49:46;6.05;;;1.30;;
52508;SDS011;38420;53.150;6.370;2023-04-25T06:52:12;8.18;;;1.40;;
52508;SDS011;38420;53.150;6.370;2023-04-25T06:54:38;6.28;;;1.52;;
52508;SDS011;38420;53.150;6.370;2023-04-25T06:57:03;8.95;;;2.40;;
52508;SDS011;38420;53.150;6.370;2023-04-25T06:59:29;7.70;;;1.58;;
52508;SDS011;38420;53.150;6.370;2023-04-25T07:01:54;9.13;;;1.73;;
52508;SDS011;38420;53.150;6.370;2023-04-25T07:04:20;12.20;;;1.75;;
52508;SDS011;38420;53.150;6.370;2023-04-25T07:06:46;11.25;;;2.30;;
52508;SDS011;38420;53.150;6.370;2023-04-25T07:09:13;11.75;;;2.70;;
52508;SDS011;38420;53.150;6.370;2023-04-25T07:11:38;10.27;;;1.70;;
52508;SDS011;38420;53.150;6.370;2023-04-25T07:14:04;8.38;;;1.60;;
52508;SDS011;38420;53.150;6.370;2023-04-25T07:16:30;9.27;;;1.52;;
52508;SDS011;38420;53.150;6.370;2023-04-25T07:18:55;10.20;;;2.17;;
52508;SDS011;38420;53.150;6.370;2023-04-25T07:21:21;9.90;;;1.52;;
52508;SDS011;38420;53.150;6.370;2023-04-25T07:23:46;9.50;;;1.60;;
52508;SDS011;38420;53.150;6.370;2023-04-25T07:26:12;6.93;;;1.95;;
52508;SDS011;38420;53.150;6.370;2023-04-25T07:28:38;6.93;;;1.67;;
52508;SDS011;38420;53.150;6.370;2023-04-25T07:31:03;9.30;;;1.58;;
52508;SDS011;38420;53.150;6.370;2023-04-25T07:33:30;5.47;;;1.58;;
52508;SDS011;38420;53.150;6.370;2023-04-25T07:35:55;10.50;;;1.80;;
52508;SDS011;38420;53.150;6.370;2023-04-25T07:38:21;7.72;;;1.20;;
52508;SDS011;38420;53.150;6.370;2023-04-25T07:40:47;9.70;;;1.05;;
52508;SDS011;38420;53.150;6.370;2023-04-25T07:43:13;7.65;;;1.10;;
52508;SDS011;38420;53.150;6.370;2023-04-25T07:45:41;5.03;;;1.00;;
52508;SDS011;38420;53.150;6.370;2023-04-25T07:48:10;5.45;;;0.80;;
52508;SDS011;38420;53.150;6.370;2023-04-25T07:50:36;11.55;;;1.23;;
52508;SDS011;38420;53.150;6.370;2023-04-25T07:53:02;9.77;;;1.40;;
52508;SDS011;38420;53.150;6.370;2023-04-25T07:55:28;6.00;;;1.20;;
52508;SDS011;38420;53.150;6.370;2023-04-25T07:57:53;5.40;;;1.20;;
52508;SDS011;38420;53.150;6.370;2023-04-25T08:00:19;7.95;;;1.98;;
52508;SDS011;38420;53.150;6.370;2023-04-25T08:02:45;12.32;;;1.67;;
52508;SDS011;38420;53.150;6.370;2023-04-25T08:05:10;5.43;;;1.40;;
52508;SDS011;38420;53.150;6.370;2023-04-25T08:07:37;5.93;;;1.40;;
52508;SDS011;38420;53.150;6.370;2023-04-25T08:10:04;8.60;;;1.38;;
52508;SDS011;38420;53.150;6.370;2023-04-25T08:12:31;8.45;;;1.20;;
52508;SDS011;38420;53.150;6.370;2023-04-25T08:14:56;7.15;;;1.52;;
52508;SDS011;38420;53.150;6.370;2023-04-25T08:17:22;7.95;;;1.60;;
52508;SDS011;38420;53.150;6.370;2023-04-25T08:19:48;5.75;;;1.30;;
52508;SDS011;38420;53.150;6.370;2023-04-25T08:22:14;8.63;;;2.05;;
52508;SDS011;38420;53.150;6.370;2023-04-25T08:24:40;9.40;;;2.08;;
52508;SDS011;38420;53.150;6.370;2023-04-25T08:27:06;3.95;;;1.10;;
52508;SDS011;38420;53.150;6.370;2023-04-25T08:29:32;8.13;;;1.33;;
52508;SDS011;38420;53.150;6.370;2023-04-25T08:31:59;9.63;;;2.03;;
52508;SDS011;38420;53.150;6.370;2023-04-25T08:34:24;6.57;;;1.25;;
52508;SDS011;38420;53.150;6.370;2023-04-25T08:36:50;5.50;;;1.38;;
52508;SDS011;38420;53.150;6.370;2023-04-25T08:39:16;5.35;;;1.48;;
52508;SDS011;38420;53.150;6.370;2023-04-25T08:41:42;4.00;;;0.70;;
52508;SDS011;38420;53.150;6.370;2023-04-25T08:44:09;4.43;;;1.17;;
52508;SDS011;38420;53.150;6.370;2023-04-25T08:46:39;7.68;;;1.55;;
52508;SDS011;38420;53.150;6.370;2023-04-25T08:49:06;6.65;;;1.35;;
52508;SDS011;38420;53.150;6.370;2023-04-25T08:51:34;5.63;;;0.85;;
52508;SDS011;38420;53.150;6.370;2023-04-25T08:54:11;4.60;;;0.90;;
52508;SDS011;38420;53.150;6.370;2023-04-25T08:56:43;3.70;;;1.15;;
52508;SDS011;38420;53.150;6.370;2023-04-25T08:59:10;6.32;;;0.90;;
52508;SDS011;38420;53.150;6.370;2023-04-25T09:01:37;3.45;;;0.80;;
52508;SDS011;38420;53.150;6.370;2023-04-25T09:04:02;4.13;;;1.00;;
52508;SDS011;38420;53.150;6.370;2023-04-25T09:06:28;5.38;;;1.10;;
52508;SDS011;38420;53.150;6.370;2023-04-25T09:09:05;4.10;;;0.98;;
52508;SDS011;38420;53.150;6.370;2023-04-25T09:11:32;7.47;;;1.75;;
52508;SDS011;38420;53.150;6.370;2023-04-25T09:14:15;6.25;;;1.30;;
52508;SDS011;38420;53.150;6.370;2023-04-25T09:16:57;7.18;;;1.17;;
52508;SDS011;38420;53.150;6.370;2023-04-25T09:19:35;8.30;;;1.52;;
52508;SDS011;38420;53.150;6.370;2023-04-25T09:22:03;6.00;;;1.45;;
52508;SDS011;38420;53.150;6.370;2023-04-25T09:24:37;8.20;;;1.83;;
52508;SDS011;38420;53.150;6.370;2023-04-25T09:27:09;10.30;;;1.30;;
52508;SDS011;38420;53.150;6.370;2023-04-25T09:29:37;9.90;;;1.58;;
52508;SDS011;38420;53.150;6.370;2023-04-25T09:32:15;13.05;;;2.53;;
52508;SDS011;38420;53.150;6.370;2023-04-25T09:34:44;8.32;;;2.42;;
52508;SDS011;38420;53.150;6.370;2023-04-25T09:37:18;9.32;;;1.85;;
52508;SDS011;38420;53.150;6.370;2023-04-25T09:39:45;8.50;;;2.42;;
52508;SDS011;38420;53.150;6.370;2023-04-25T09:42:14;12.23;;;2.20;;
52508;SDS011;38420;53.150;6.370;2023-04-25T09:44:42;8.30;;;1.70;;
52508;SDS011;38420;53.150;6.370;2023-04-25T09:47:11;9.10;;;1.40;;
52508;SDS011;38420;53.150;6.370;2023-04-25T09:49:39;6.45;;;1.40;;
52508;SDS011;38420;53.150;6.370;2023-04-25T09:52:06;9.40;;;1.48;;
52508;SDS011;38420;53.150;6.370;2023-04-25T09:54:32;8.70;;;1.35;;
52508;SDS011;38420;53.150;6.370;2023-04-25T09:56:57;8.50;;;1.67;;
52508;SDS011;38420;53.150;6.370;2023-04-25T09:59:55;7.10;;;1.40;;
52508;SDS011;38420;53.150;6.370;2023-04-25T10:02:22;9.20;;;2.10;;
52508;SDS011;38420;53.150;6.370;2023-04-25T10:04:51;7.45;;;2.10;;
52508;SDS011;38420;53.150;6.370;2023-04-25T10:07:19;6.40;;;1.48;;
52508;SDS011;38420;53.150;6.370;2023-04-25T10:09:48;8.18;;;1.75;;
52508;SDS011;38420;53.150;6.370;2023-04-25T10:12:17;7.28;;;1.42;;
52508;SDS011;38420;53.150;6.370;2023-04-25T10:14:43;5.40;;;1.50;;
52508;SDS011;38420;53.150;6.370;2023-04-25T10:17:10;10.57;;;1.75;;
52508;SDS011;38420;53.150;6.370;2023-04-25T10:19:36;8.82;;;1.60;;
52508;SDS011;38420;53.150;6.370;2023-04-25T10:22:10;13.27;;;1.42;;
52508;SDS011;38420;53.150;6.370;2023-04-25T10:24:50;7.05;;;1.50;;
52508;SDS011;38420;53.150;6.370;2023-04-25T10:27:17;12.48;;;1.95;;
52508;SDS011;38420;53.150;6.370;2023-04-25T10:29:43;6.97;;;1.25;;
52508;SDS011;38420;53.150;6.370;2023-04-25T10:32:09;7.05;;;1.27;;
52508;SDS011;38420;53.150;6.370;2023-04-25T10:34:41;6.45;;;1.30;;
52508;SDS011;38420;53.150;6.370;2023-04-25T10:37:11;11.95;;;1.90;;
52508;SDS011;38420;53.150;6.370;2023-04-25T10:39:38;12.20;;;1.73;;
52508;SDS011;38420;53.150;6.370;2023-04-25T10:42:06;10.60;;;1.52;;
52508;SDS011;38420;53.150;6.370;2023-04-25T10:44:32;6.65;;;1.30;;
52508;SDS011;38420;53.150;6.370;2023-04-25T10:46:59;10.30;;;1.98;;
52508;SDS011;38420;53.150;6.370;2023-04-25T10:52:15;11.52;;;1.85;;
52508;SDS011;38420;53.150;6.370;2023-04-25T10:54:41;11.43;;;2.75;;
52508;SDS011;38420;53.150;6.370;2023-04-25T11:00:05;9.60;;;1.65;;
52508;SDS011;38420;53.150;6.370;2023-04-25T11:05:31;9.35;;;1.50;;
52508;SDS011;38420;53.150;6.370;2023-04-25T11:07:58;7.68;;;1.63;;
52508;SDS011;38420;53.150;6.370;2023-04-25T11:10:28;9.23;;;1.35;;
52508;SDS011;38420;53.150;6.370;2023-04-25T11:12:55;5.63;;;1.40;;
52508;SDS011;38420;53.150;6.370;2023-04-25T11:15:21;7.18;;;1.65;;
52508;SDS011;38420;53.150;6.370;2023-04-25T11:17:47;10.80;;;2.00;;
52508;SDS011;38420;53.150;6.370;2023-04-25T11:20:13;9.60;;;1.50;;
52508;SDS011;38420;53.150;6.370;2023-04-25T11:22:40;12.18;;;1.77;;
52508;SDS011;38420;53.150;6.370;2023-04-25T11:25:10;13.18;;;1.83;;
52508;SDS011;38420;53.150;6.370;2023-04-25T11:27:49;5.80;;;1.50;;
52508;SDS011;38420;53.150;6.370;2023-04-25T11:30:19;5.47;;;1.13;;
52508;SDS011;38420;53.150;6.370;2023-04-25T11:32:45;3.78;;;1.20;;
52508;SDS011;38420;53.150;6.370;2023-04-25T11:35:12;5.40;;;1.17;;
52508;SDS011;38420;53.150;6.370;2023-04-25T11:37:39;4.40;;;1.52;;
52508;SDS011;38420;53.150;6.370;2023-04-25T11:40:05;5.38;;;1.23;;
52508;SDS011;38420;53.150;6.370;2023-04-25T11:42:32;6.72;;;1.40;;
52508;SDS011;38420;53.150;6.370;2023-04-25T11:44:58;6.93;;;1.40;;
52508;SDS011;38420;53.150;6.370;2023-04-25T11:47:28;5.45;;;1.15;;
52508;SDS011;38420;53.150;6.370;2023-04-25T11:49:58;10.18;;;1.88;;
52508;SDS011;38420;53.150;6.370;2023-04-25T11:52:34;8.77;;;1.30;;
52508;SDS011;38420;53.150;6.370;2023-04-25T11:55:07;7.13;;;1.27;;
52508;SDS011;38420;53.150;6.370;2023-04-25T11:57:33;4.65;;;1.60;;
52508;SDS011;38420;53.150;6.370;2023-04-25T12:02:55;4.90;;;1.02;;
52508;SDS011;38420;53.150;6.370;2023-04-25T12:05:26;6.65;;;1.33;;
52508;SDS011;38420;53.150;6.370;2023-04-25T12:07:53;9.27;;;1.48;;
52508;SDS011;38420;53.150;6.370;2023-04-25T12:10:19;7.35;;;1.13;;
52508;SDS011;38420;53.150;6.370;2023-04-25T12:12:45;7.45;;;1.50;;
52508;SDS011;38420;53.150;6.370;2023-04-25T12:15:13;8.63;;;1.50;;
52508;SDS011;38420;53.150;6.370;2023-04-25T12:17:44;9.43;;;1.70;;
52508;SDS011;38420;53.150;6.370;2023-04-25T12:20:15;6.68;;;1.45;;
52508;SDS011;38420;53.150;6.370;2023-04-25T12:22:46;11.18;;;2.33;;
52508;SDS011;38420;53.150;6.370;2023-04-25T12:25:12;8.25;;;1.95;;
52508;SDS011;38420;53.150;6.370;2023-04-25T12:27:39;11.60;;;2.13;;
52508;SDS011;38420;53.150;6.370;2023-04-25T12:30:07;10.63;;;2.20;;
52508;SDS011;38420;53.150;6.370;2023-04-25T12:32:33;6.43;;;1.30;;
52508;SDS011;38420;53.150;6.370;2023-04-25T12:34:59;8.27;;;2.08;;
52508;SDS011;38420;53.150;6.370;2023-04-25T12:37:24;8.40;;;1.58;;
52508;SDS011;38420;53.150;6.370;2023-04-25T12:39:50;6.82;;;1.30;;
52508;SDS011;38420;53.150;6.370;2023-04-25T12:42:16;8.82;;;1.65;;
52508;SDS011;38420;53.150;6.370;2023-04-25T12:44:41;8.02;;;1.40;;
52508;SDS011;38420;53.150;6.370;2023-04-25T12:47:07;8.48;;;1.75;;
52508;SDS011;38420;53.150;6.370;2023-04-25T12:49:33;12.02;;;2.03;;
52508;SDS011;38420;53.150;6.370;2023-04-25T12:51:58;9.98;;;1.70;;
52508;SDS011;38420;53.150;6.370;2023-04-25T12:54:24;6.57;;;1.30;;
52508;SDS011;38420;53.150;6.370;2023-04-25T12:56:50;9.45;;;1.23;;
52508;SDS011;38420;53.150;6.370;2023-04-25T12:59:16;6.72;;;1.27;;
52508;SDS011;38420;53.150;6.370;2023-04-25T13:01:42;8.27;;;1.08;;
52508;SDS011;38420;53.150;6.370;2023-04-25T13:04:09;5.82;;;1.10;;
52508;SDS011;38420;53.150;6.370;2023-04-25T13:06:34;7.75;;;1.30;;
52508;SDS011;38420;53.150;6.370;2023-04-25T13:09:00;5.88;;;1.60;;
52508;SDS011;38420;53.150;6.370;2023-04-25T13:11:26;6.13;;;1.25;;
52508;SDS011;38420;53.150;6.370;2023-04-25T13:13:52;4.20;;;1.38;;
52508;SDS011;38420;53.150;6.370;2023-04-25T13:16:17;9.20;;;1.65;;
52508;SDS011;38420;53.150;6.370;2023-04-25T13:18:45;12.68;;;2.25;;
52508;SDS011;38420;53.150;6.370;2023-04-25T13:21:11;11.05;;;2.15;;
52508;SDS011;38420;53.150;6.370;2023-04-25T13:23:36;10.57;;;1.63;;
52508;SDS011;38420;53.150;6.370;2023-04-25T13:26:02;11.32;;;2.00;;
52508;SDS011;38420;53.150;6.370;2023-04-25T13:28:28;11.60;;;2.00;;
52508;SDS011;38420;53.150;6.370;2023-04-25T13:30:54;12.48;;;3.58;;
52508;SDS011;38420;53.150;6.370;2023-04-25T13:33:20;11.80;;;1.77;;
52508;SDS011;38420;53.150;6.370;2023-04-25T13:35:46;9.27;;;2.10;;
52508;SDS011;38420;53.150;6.370;2023-04-25T13:38:19;6.78;;;1.67;;
52508;SDS011;38420;53.150;6.370;2023-04-25T13:40:46;10.73;;;2.20;;
52508;SDS011;38420;53.150;6.370;2023-04-25T13:43:11;7.90;;;1.70;;
52508;SDS011;38420;53.150;6.370;2023-04-25T13:45:37;10.63;;;2.03;;
52508;SDS011;38420;53.150;6.370;2023-04-25T13:48:02;8.70;;;1.65;;
52508;SDS011;38420;53.150;6.370;2023-04-25T13:50:28;6.80;;;1.58;;
52508;SDS011;38420;53.150;6.370;2023-04-25T13:52:54;8.45;;;1.38;;
52508;SDS011;38420;53.150;6.370;2023-04-25T13:55:19;5.90;;;1.63;;
52508;SDS011;38420;53.150;6.370;2023-04-25T13:57:45;12.15;;;2.33;;
52508;SDS011;38420;53.150;6.370;2023-04-25T14:00:11;9.80;;;1.85;;
52508;SDS011;38420;53.150;6.370;2023-04-25T14:02:38;9.93;;;2.28;;
52508;SDS011;38420;53.150;6.370;2023-04-25T14:05:04;7.85;;;1.50;;
52508;SDS011;38420;53.150;6.370;2023-04-25T14:07:30;8.07;;;2.03;;
52508;SDS011;38420;53.150;6.370;2023-04-25T14:09:56;16.73;;;3.17;;
52508;SDS011;38420;53.150;6.370;2023-04-25T14:12:25;6.57;;;1.88;;
52508;SDS011;38420;53.150;6.370;2023-04-25T14:14:51;7.97;;;1.52;;
52508;SDS011;38420;53.150;6.370;2023-04-25T14:17:18;10.48;;;1.92;;
52508;SDS011;38420;53.150;6.370;2023-04-25T14:19:44;8.93;;;1.73;;
52508;SDS011;38420;53.150;6.370;2023-04-25T14:22:12;9.50;;;1.77;;
52508;SDS011;38420;53.150;6.370;2023-04-25T14:24:38;4.97;;;1.15;;
52508;SDS011;38420;53.150;6.370;2023-04-25T14:27:04;10.60;;;1.75;;
52508;SDS011;38420;53.150;6.370;2023-04-25T14:29:30;9.90;;;2.05;;
52508;SDS011;38420;53.150;6.370;2023-04-25T14:31:55;8.88;;;1.55;;
52508;SDS011;38420;53.150;6.370;2023-04-25T14:34:22;10.55;;;2.40;;
52508;SDS011;38420;53.150;6.370;2023-04-25T14:36:48;15.23;;;2.95;;
52508;SDS011;38420;53.150;6.370;2023-04-25T14:39:14;9.02;;;2.20;;
52508;SDS011;38420;53.150;6.370;2023-04-25T14:41:40;11.25;;;2.25;;
52508;SDS011;38420;53.150;6.370;2023-04-25T14:44:05;8.20;;;1.60;;
52508;SDS011;38420;53.150;6.370;2023-04-25T14:46:31;12.18;;;1.70;;
52508;SDS011;38420;53.150;6.370;2023-04-25T14:48:57;8.90;;;1.58;;